Terminal Aerodrome Forecast
Issued by NWS

Home | Current Version | Previous Version | Text Only | Print | Product List | Glossary On
Versions: 1 2 3 4 5 6 7 8 9 10 11 12 13 14 15 16 17 18 19 20
929
FTUS45 KPIH 272326
TAFSUN
TAF
KSUN 272326Z 2800/2824 22010G18KT P6SM VCSH SCT015 BKN040
     FM280200 30007KT P6SM SCT030 BKN100
     FM281100 VRB05KT 3SM -SN OVC020
     FM281900 23015G25KT P6SM VCSH SCT020 BKN050
      AMD LTD TO CLD VIS AND WIND 2806/2814=

USA.gov is the U.S. government's official web portal to all federal, state and local government web resources and services.